createdAt,value
2019-05-23T00:01:56.221Z,56.70
2019-05-23T00:04:43.328Z,57.00
2019-05-23T00:07:13.699Z,58.00
2019-05-23T00:09:43.459Z,57.50
2019-05-23T00:12:34.474Z,57.80
2019-05-23T00:15:12.047Z,56.60
2019-05-23T00:17:40.684Z,57.10
2019-05-23T00:20:10.247Z,57.70
2019-05-23T00:22:40.592Z,56.70
2019-05-23T00:25:10.796Z,56.40
2019-05-23T00:27:40.807Z,56.10
2019-05-23T00:30:12.958Z,57.10
2019-05-23T00:32:43.366Z,57.50
2019-05-23T00:35:13.636Z,57.40
2019-05-23T00:37:43.529Z,57.00
2019-05-23T00:40:15.607Z,55.60
2019-05-23T00:42:45.466Z,54.40
2019-05-23T00:45:15.526Z,53.90
2019-05-23T00:47:44.884Z,53.80
2019-05-23T00:50:16.687Z,53.80
2019-05-23T00:52:45.879Z,53.10
2019-05-23T00:55:15.559Z,52.00
2019-05-23T00:57:44.319Z,52.10
2019-05-23T01:00:16.401Z,50.60
2019-05-23T01:02:47.146Z,51.90
2019-05-23T01:05:16.360Z,51.70
2019-05-23T01:07:45.397Z,51.10
2019-05-23T01:10:16.292Z,51.50
2019-05-23T01:12:45.743Z,50.70
2019-05-23T01:15:14.545Z,50.70
2019-05-23T01:17:43.580Z,50.50
2019-05-23T01:20:14.252Z,50.40
2019-05-23T01:22:43.537Z,51.10
2019-05-23T01:25:14.010Z,51.80
2019-05-23T01:27:44.694Z,51.60
2019-05-23T01:30:15.417Z,52.10
2019-05-23T01:32:54.766Z,52.60
2019-05-23T01:35:24.391Z,52.70
2019-05-23T01:37:53.528Z,53.30
2019-05-23T01:40:22.432Z,53.80
2019-05-23T01:42:51.603Z,54.00
2019-05-23T01:45:20.828Z,54.40
2019-05-23T01:47:50.313Z,55.00
2019-05-23T01:50:22.717Z,55.90
2019-05-23T01:52:52.775Z,56.10
2019-05-23T01:55:21.850Z,58.50
2019-05-23T01:57:51.207Z,58.40
2019-05-23T02:00:21.384Z,57.00
2019-05-23T02:02:51.084Z,57.30
2019-05-23T02:05:19.724Z,56.30
2019-05-23T02:07:48.564Z,56.10
2019-05-23T02:10:17.665Z,55.50
2019-05-23T02:12:47.620Z,55.60
2019-05-23T02:15:16.730Z,56.90
2019-05-23T02:17:46.496Z,58.10
2019-05-23T02:20:18.265Z,57.80
2019-05-23T02:23:07.619Z,56.80
2019-05-23T02:25:36.709Z,55.70
2019-05-23T02:28:06.510Z,56.20
2019-05-23T02:30:36.349Z,55.10
2019-05-23T02:33:05.426Z,56.10
2019-05-23T02:35:34.250Z,55.80
2019-05-23T02:38:21.398Z,55.70
2019-05-23T02:40:54.817Z,55.80
2019-05-23T02:43:27.768Z,56.60
2019-05-23T02:45:59.121Z,57.10
2019-05-23T02:48:31.253Z,57.60
2019-05-23T02:51:03.279Z,57.70
2019-05-23T02:53:35.328Z,57.70
2019-05-23T02:56:08.133Z,57.40
2019-05-23T02:58:40.473Z,57.30
2019-05-23T03:01:32.253Z,57.20
2019-05-23T03:04:04.772Z,57.60
2019-05-23T03:06:35.020Z,57.40
2019-05-23T03:09:04.591Z,57.10
2019-05-23T03:11:37.148Z,56.60
2019-05-23T03:14:06.449Z,56.80
2019-05-23T03:16:36.011Z,56.60
2019-05-23T03:19:24.695Z,57.10
2019-05-23T03:21:58.325Z,57.20
2019-05-23T03:24:28.887Z,57.00
2019-05-23T03:27:02.599Z,57.10
2019-05-23T03:29:52.045Z,58.90
2019-05-23T03:32:26.651Z,59.60
2019-05-23T03:35:00.449Z,61.30
2019-05-23T03:37:30.757Z,61.80
2019-05-23T03:39:59.877Z,61.10
2019-05-23T03:42:29.195Z,59.60
2019-05-23T03:44:57.787Z,59.00
2019-05-23T03:47:28.043Z,58.90
2019-05-23T03:49:58.523Z,58.70
2019-05-23T03:52:27.941Z,59.40
2019-05-23T03:54:56.753Z,59.10
2019-05-23T03:57:26.301Z,59.70
2019-05-23T03:59:56.484Z,60.20
2019-05-23T04:02:26.689Z,60.40
2019-05-23T04:04:57.283Z,59.20
2019-05-23T04:07:26.401Z,58.90
2019-05-23T04:09:55.384Z,58.70
2019-05-23T04:12:24.142Z,58.40
2019-05-23T04:14:53.659Z,58.00
2019-05-23T04:17:22.667Z,57.70
2019-05-23T04:19:51.358Z,58.40
2019-05-23T04:22:20.189Z,58.60
2019-05-23T04:24:49.153Z,58.00
2019-05-23T04:27:17.941Z,58.50
2019-05-23T04:29:46.969Z,60.50
2019-05-23T04:32:15.510Z,60.40
2019-05-23T04:34:44.619Z,60.40
2019-05-23T04:37:13.292Z,60.60
2019-05-23T04:39:41.917Z,59.50
2019-05-23T04:42:11.195Z,59.70
2019-05-23T04:44:43.982Z,59.60
2019-05-23T04:47:10.735Z,59.30
2019-05-23T04:49:39.374Z,58.10
2019-05-23T04:52:08.855Z,57.70
2019-05-23T04:54:37.780Z,57.20
2019-05-23T04:57:06.319Z,57.40
2019-05-23T04:59:35.031Z,56.50
2019-05-23T05:02:04.385Z,55.90
2019-05-23T05:04:33.501Z,56.90
2019-05-23T05:07:02.400Z,56.50
2019-05-23T05:09:32.397Z,57.70
2019-05-23T05:12:01.269Z,60.00
2019-05-23T05:14:31.375Z,62.50
2019-05-23T05:17:00.111Z,61.30
2019-05-23T05:19:28.783Z,60.70
2019-05-23T05:21:57.457Z,59.90
2019-05-23T05:24:26.092Z,58.80
2019-05-23T05:26:54.992Z,60.50
2019-05-23T05:29:23.585Z,63.30
2019-05-23T05:31:52.499Z,62.50
2019-05-23T05:34:21.212Z,65.30
2019-05-23T05:36:50.511Z,64.00
2019-05-23T05:39:19.554Z,61.90
2019-05-23T05:41:48.295Z,61.90
2019-05-23T05:44:16.970Z,62.10
2019-05-23T05:46:45.747Z,62.80
2019-05-23T05:49:14.935Z,61.00
2019-05-23T05:54:22.659Z,58.70
2019-05-23T05:57:10.796Z,62.40
2019-05-23T05:59:39.316Z,62.00
2019-05-23T06:02:09.697Z,62.10
2019-05-23T06:04:39.205Z,60.10
2019-05-23T06:07:25.116Z,59.40
2019-05-23T06:09:55.081Z,58.40
2019-05-23T06:12:23.975Z,58.00
2019-05-23T06:14:52.560Z,58.10
2019-05-23T06:17:22.357Z,57.80
2019-05-23T06:19:51.053Z,57.70
2019-05-23T06:22:20.330Z,56.50
2019-05-23T06:24:53.776Z,56.00
2019-05-23T06:27:20.389Z,54.90
2019-05-23T06:29:49.267Z,54.60
2019-05-23T06:32:22.157Z,55.60
2019-05-23T06:34:51.214Z,56.60
2019-05-23T06:37:21.572Z,55.60
2019-05-23T06:39:50.324Z,54.80
2019-05-23T06:42:19.228Z,55.80
2019-05-23T06:44:47.863Z,57.20
2019-05-23T06:47:16.961Z,58.60
2019-05-23T06:49:45.527Z,61.00
2019-05-23T06:52:14.417Z,62.90
2019-05-23T06:54:42.985Z,61.20
2019-05-23T06:57:11.812Z,60.40
2019-05-23T06:59:40.356Z,60.90
2019-05-23T07:02:09.136Z,59.90
2019-05-23T07:04:37.946Z,60.00
2019-05-23T07:07:07.427Z,59.50
2019-05-23T07:09:36.368Z,58.80
2019-05-23T07:12:05.579Z,58.60
2019-05-23T07:14:34.372Z,59.40
2019-05-23T07:17:03.705Z,58.90
2019-05-23T07:19:32.356Z,56.60
2019-05-23T07:22:00.910Z,55.40
2019-05-23T07:24:30.032Z,56.50
2019-05-23T07:26:58.859Z,57.30
2019-05-23T07:29:27.747Z,56.10
2019-05-23T07:31:56.524Z,54.20
2019-05-23T07:34:25.435Z,55.80
2019-05-23T07:36:54.560Z,56.30
2019-05-23T07:39:23.245Z,58.10
2019-05-23T07:41:52.034Z,58.50
2019-05-23T07:44:20.511Z,56.50
2019-05-23T07:46:49.072Z,56.60
2019-05-23T07:49:17.868Z,55.50
2019-05-23T07:51:46.681Z,57.10
2019-05-23T07:54:23.099Z,55.20
2019-05-23T07:56:52.617Z,54.40
2019-05-23T07:59:21.229Z,53.70
2019-05-23T08:01:52.029Z,53.10
2019-05-23T08:04:22.432Z,52.60
2019-05-23T08:06:51.336Z,52.40
2019-05-23T08:09:19.912Z,52.10
2019-05-23T08:11:48.655Z,52.20
2019-05-23T08:14:17.209Z,52.90
2019-05-23T08:16:45.892Z,52.70
2019-05-23T08:19:19.304Z,51.90
2019-05-23T08:21:45.349Z,49.60
2019-05-23T08:24:14.585Z,50.30
2019-05-23T08:26:45.036Z,51.10
2019-05-23T08:29:29.487Z,49.50
2019-05-23T08:31:44.819Z,49.20
2019-05-23T08:34:13.590Z,48.20
2019-05-23T08:36:42.256Z,48.80
2019-05-23T08:39:11.419Z,49.40
2019-05-23T08:41:40.653Z,49.70
2019-05-23T08:44:11.658Z,49.40
2019-05-23T08:46:40.869Z,49.00
2019-05-23T08:49:10.174Z,47.80
2019-05-23T08:51:38.830Z,48.30
2019-05-23T08:54:07.456Z,50.10
2019-05-23T08:56:36.330Z,51.90
2019-05-23T08:59:07.539Z,49.20
2019-05-23T09:01:36.428Z,49.90
2019-05-23T09:04:06.907Z,49.00
2019-05-23T09:06:35.555Z,50.00
2019-05-23T09:09:27.836Z,49.70
2019-05-23T09:11:38.110Z,50.00
2019-05-23T09:14:07.399Z,51.90
2019-05-23T09:16:36.793Z,50.30
2019-05-23T09:19:06.637Z,50.10
2019-05-23T09:21:35.293Z,49.80
2019-05-23T09:24:05.588Z,49.00
2019-05-23T09:26:35.172Z,48.80
2019-05-23T09:29:04.165Z,47.80
2019-05-23T09:31:33.502Z,47.20
2019-05-23T09:34:02.170Z,46.40
2019-05-23T09:36:31.078Z,46.20
2019-05-23T09:38:59.653Z,46.90
2019-05-23T09:41:28.363Z,47.80
2019-05-23T09:43:57.002Z,48.80
2019-05-23T09:46:25.900Z,48.60
2019-05-23T09:48:54.469Z,48.00
2019-05-23T09:51:23.091Z,48.30
2019-05-23T09:53:51.721Z,49.10
2019-05-23T09:56:20.351Z,48.90
2019-05-23T09:58:48.848Z,49.20
2019-05-23T10:01:18.498Z,48.30
2019-05-23T10:03:47.511Z,48.70
2019-05-23T10:06:16.317Z,47.90
2019-05-23T10:08:44.941Z,48.00
2019-05-23T10:11:13.836Z,48.10
2019-05-23T10:13:42.380Z,47.50
2019-05-23T10:16:11.345Z,46.80
2019-05-23T10:18:39.892Z,47.00
2019-05-23T10:21:08.919Z,46.80
2019-05-23T10:23:37.612Z,45.10
2019-05-23T10:26:06.672Z,46.30
2019-05-23T10:28:35.354Z,46.60
2019-05-23T10:31:05.712Z,46.20
2019-05-23T10:33:34.502Z,46.20
2019-05-23T10:36:03.160Z,47.00
2019-05-23T10:38:31.806Z,46.70
2019-05-23T10:41:00.684Z,46.30
2019-05-23T10:43:29.397Z,45.40
2019-05-23T10:45:59.503Z,44.90
2019-05-23T10:48:28.419Z,44.00
2019-05-23T10:50:57.005Z,45.10
2019-05-23T10:53:26.222Z,45.90
2019-05-23T10:55:54.984Z,45.60
2019-05-23T10:58:26.921Z,46.20
2019-05-23T11:00:56.079Z,45.00
2019-05-23T11:03:25.547Z,45.10
2019-05-23T11:05:54.310Z,45.70
2019-05-23T11:08:28.543Z,45.00
2019-05-23T11:10:53.146Z,45.10
2019-05-23T11:13:21.710Z,43.90
2019-05-23T11:15:50.320Z,45.30
2019-05-23T11:18:19.166Z,44.30
2019-05-23T11:20:47.753Z,43.60
2019-05-23T11:23:18.372Z,43.20
2019-05-23T11:25:46.856Z,44.10
2019-05-23T11:28:15.507Z,43.80
2019-05-23T11:30:49.001Z,43.40
2019-05-23T11:33:18.024Z,42.20
2019-05-23T11:35:47.074Z,41.40
2019-05-23T11:38:15.896Z,43.50
2019-05-23T11:40:44.737Z,44.20
2019-05-23T11:43:13.577Z,43.80
2019-05-23T11:45:46.103Z,43.40
2019-05-23T11:48:16.198Z,42.30
2019-05-23T11:50:45.396Z,42.90
2019-05-23T11:53:14.158Z,42.60
2019-05-23T11:55:43.598Z,42.00
2019-05-23T11:58:12.508Z,41.20
2019-05-23T12:00:54.729Z,41.00
2019-05-23T12:03:23.424Z,41.60
2019-05-23T12:05:52.993Z,41.90
2019-05-23T12:08:21.689Z,41.70
2019-05-23T12:10:50.360Z,41.60
2019-05-23T12:13:19.342Z,41.10
2019-05-23T12:15:49.426Z,41.00
2019-05-23T12:18:18.115Z,39.50
2019-05-23T12:20:46.752Z,40.10
2019-05-23T12:23:15.499Z,38.80
2019-05-23T12:25:44.244Z,38.20
2019-05-23T12:28:13.261Z,37.70
2019-05-23T12:30:42.071Z,40.00
2019-05-23T12:33:10.749Z,42.90
2019-05-23T12:35:39.301Z,42.50
2019-05-23T12:38:08.320Z,41.30
2019-05-23T12:40:37.091Z,40.30
2019-05-23T12:43:05.866Z,37.80
2019-05-23T12:45:34.547Z,36.60
2019-05-23T12:48:05.172Z,37.40
2019-05-23T12:50:41.416Z,36.50
2019-05-23T12:53:12.002Z,36.40
2019-05-23T12:55:41.087Z,35.00
2019-05-23T12:58:10.041Z,34.40
2019-05-23T13:00:43.722Z,33.30
2019-05-23T13:03:14.155Z,32.60
2019-05-23T13:05:42.761Z,33.20
2019-05-23T13:08:11.476Z,35.00
2019-05-23T13:10:40.503Z,33.90
2019-05-23T13:13:09.312Z,34.00
2019-05-23T13:15:38.332Z,35.10
2019-05-23T13:18:07.612Z,37.00
2019-05-23T13:20:37.480Z,37.00
2019-05-23T13:23:07.488Z,36.50
2019-05-23T13:25:36.995Z,34.50
2019-05-23T13:28:05.737Z,32.90
2019-05-23T13:30:34.685Z,32.40
2019-05-23T13:33:03.945Z,32.30
2019-05-23T13:35:33.145Z,30.50
2019-05-23T13:38:01.961Z,28.90
2019-05-23T13:40:30.642Z,29.60
2019-05-23T13:42:59.365Z,29.00
2019-05-23T13:45:28.375Z,29.70
2019-05-23T13:47:57.039Z,30.20
2019-05-23T13:50:26.804Z,30.00
2019-05-23T13:52:55.627Z,30.60
2019-05-23T13:55:25.097Z,32.60
2019-05-23T13:57:53.801Z,31.60
2019-05-23T14:00:22.777Z,30.30
2019-05-23T14:02:51.428Z,30.80
2019-05-23T14:05:20.355Z,29.60
2019-05-23T14:07:48.995Z,29.20
2019-05-23T14:10:18.494Z,28.70
2019-05-23T14:12:47.499Z,30.70
2019-05-23T14:15:18.209Z,30.30
2019-05-23T14:17:48.561Z,29.20
2019-05-23T14:20:17.307Z,29.40
2019-05-23T14:22:53.861Z,28.50
2019-05-23T14:25:23.391Z,28.40
2019-05-23T14:27:53.969Z,31.40
2019-05-23T14:30:24.620Z,30.50
2019-05-23T14:33:03.766Z,30.30
2019-05-23T14:35:34.046Z,28.70
2019-05-23T14:38:04.414Z,28.20
2019-05-23T14:40:33.562Z,27.90
2019-05-23T14:43:20.508Z,28.20
2019-05-23T14:46:09.189Z,29.00
2019-05-23T14:48:45.534Z,27.00
2019-05-23T14:51:18.745Z,28.50
2019-05-23T14:53:52.130Z,27.70
2019-05-23T14:56:23.128Z,26.30
2019-05-23T14:58:52.317Z,25.30
2019-05-23T15:01:23.055Z,26.90
2019-05-23T15:03:52.016Z,29.30
2019-05-23T15:06:20.977Z,30.50
2019-05-23T15:08:51.804Z,28.10
2019-05-23T15:11:19.851Z,27.20
2019-05-23T15:13:48.413Z,27.00
2019-05-23T15:16:18.215Z,27.60
2019-05-23T15:18:46.973Z,27.30
2019-05-23T15:21:15.932Z,26.10
2019-05-23T15:23:44.706Z,27.00
2019-05-23T15:26:22.989Z,28.20
2019-05-23T15:28:43.982Z,26.90
2019-05-23T15:31:12.710Z,27.40
2019-05-23T15:33:41.363Z,28.60
2019-05-23T15:36:10.851Z,26.60
2019-05-23T15:38:39.434Z,26.60
2019-05-23T15:41:08.072Z,27.50
2019-05-23T15:43:36.670Z,27.20
2019-05-23T15:46:05.492Z,28.00
2019-05-23T15:48:34.036Z,27.60
2019-05-23T15:51:02.606Z,28.50
2019-05-23T15:53:38.941Z,27.80
2019-05-23T15:56:28.809Z,26.60
2019-05-23T15:59:11.399Z,27.50
2019-05-23T16:01:41.665Z,28.50
2019-05-23T16:04:12.114Z,28.30
2019-05-23T16:06:41.261Z,30.30
2019-05-23T16:09:27.824Z,29.80
2019-05-23T16:11:43.115Z,28.50
2019-05-23T16:14:12.513Z,27.40
2019-05-23T16:16:41.605Z,26.70
2019-05-23T16:19:10.336Z,25.20
2019-05-23T16:21:40.516Z,24.90
2019-05-23T16:24:09.589Z,23.70
2019-05-23T16:26:38.758Z,23.20
2019-05-23T16:29:08.186Z,23.40
2019-05-23T16:31:38.407Z,24.00
2019-05-23T16:34:07.685Z,27.80
2019-05-23T16:36:36.423Z,30.30
2019-05-23T16:39:13.934Z,31.70
2019-05-23T16:41:42.763Z,29.60
2019-05-23T16:44:11.545Z,28.90
2019-05-23T16:46:40.239Z,27.40
2019-05-23T16:49:09.006Z,26.60
2019-05-23T16:51:37.731Z,25.50
2019-05-23T16:54:06.360Z,23.80
2019-05-23T16:56:36.857Z,23.80
2019-05-23T16:59:07.308Z,23.00
2019-05-23T17:01:57.076Z,23.90
2019-05-23T17:04:24.782Z,23.40
2019-05-23T17:07:00.674Z,24.30
2019-05-23T17:09:34.137Z,24.90
2019-05-23T17:12:20.691Z,23.70
2019-05-23T17:14:54.013Z,23.40
2019-05-23T17:17:57.153Z,25.70
2019-05-23T17:20:17.859Z,25.80
2019-05-23T17:22:40.077Z,26.00
2019-05-23T17:25:19.857Z,26.30
2019-05-23T17:27:53.086Z,27.70
2019-05-23T17:30:26.105Z,27.40
2019-05-23T17:32:55.588Z,28.10
2019-05-23T17:35:24.691Z,29.20
2019-05-23T17:37:53.330Z,27.90
2019-05-23T17:40:25.261Z,27.10
2019-05-23T17:42:52.452Z,28.30
2019-05-23T17:45:21.544Z,28.40
2019-05-23T17:47:50.409Z,28.30
2019-05-23T17:50:18.976Z,28.20
2019-05-23T17:52:47.715Z,28.00
2019-05-23T17:55:16.497Z,27.70
2019-05-23T17:57:45.133Z,28.10
2019-05-23T18:00:15.646Z,28.50
2019-05-23T18:02:44.196Z,29.00
2019-05-23T18:05:13.435Z,29.40
2019-05-23T18:07:42.680Z,28.50
2019-05-23T18:10:12.235Z,28.40
2019-05-23T18:12:41.160Z,29.80
2019-05-23T18:15:11.641Z,30.70
2019-05-23T18:17:40.184Z,32.30
2019-05-23T18:20:09.480Z,34.60
2019-05-23T18:22:38.607Z,34.40
2019-05-23T18:25:10.440Z,35.10
2019-05-23T18:27:40.024Z,35.80
2019-05-23T18:30:11.087Z,36.30
2019-05-23T18:32:40.190Z,36.80
2019-05-23T18:35:10.475Z,37.60
2019-05-23T18:37:39.064Z,37.90
2019-05-23T18:40:08.312Z,38.70
2019-05-23T18:42:38.505Z,38.90
2019-05-23T18:45:09.425Z,39.10
2019-05-23T18:47:39.802Z,39.30
2019-05-23T18:50:10.123Z,39.30
2019-05-23T18:52:39.096Z,38.80
2019-05-23T18:55:08.953Z,39.00
2019-05-23T18:57:38.086Z,39.50
2019-05-23T19:00:08.139Z,39.90
2019-05-23T19:02:36.851Z,39.70
2019-05-23T19:05:09.488Z,40.10
2019-05-23T19:07:40.961Z,40.60
2019-05-23T19:10:12.348Z,41.00
2019-05-23T19:12:42.666Z,41.00
2019-05-23T19:15:12.007Z,41.00
2019-05-23T19:17:40.852Z,41.50
2019-05-23T19:20:09.786Z,41.20
2019-05-23T19:22:39.213Z,41.10
2019-05-23T19:25:10.474Z,41.20
2019-05-23T19:27:39.300Z,40.90
2019-05-23T19:30:09.057Z,40.70
2019-05-23T19:32:38.469Z,39.60
2019-05-23T19:35:08.178Z,40.30
2019-05-23T19:37:36.989Z,40.40
2019-05-23T19:40:09.514Z,40.50
2019-05-23T19:42:38.486Z,40.30
2019-05-23T19:45:08.126Z,40.60
2019-05-23T19:47:37.016Z,41.10
2019-05-23T19:50:06.792Z,40.80
2019-05-23T19:52:36.080Z,40.50
2019-05-23T19:55:07.045Z,41.10
2019-05-23T19:57:37.580Z,41.50
2019-05-23T20:00:08.448Z,41.50
2019-05-23T20:02:38.835Z,42.00
2019-05-23T20:05:09.331Z,42.00
2019-05-23T20:07:38.025Z,42.70
2019-05-23T20:10:08.321Z,42.80
2019-05-23T20:12:36.992Z,42.10
2019-05-23T20:15:07.060Z,42.60
2019-05-23T20:17:35.844Z,43.60
2019-05-23T20:20:07.057Z,44.30
2019-05-23T20:22:35.739Z,44.00
2019-05-23T20:25:06.392Z,44.00
2019-05-23T20:27:35.162Z,43.40
2019-05-23T20:30:06.820Z,43.10
2019-05-23T20:32:35.768Z,43.10
2019-05-23T20:35:05.105Z,43.40
2019-05-23T20:37:35.543Z,43.10
2019-05-23T20:40:06.290Z,42.90
2019-05-23T20:42:35.040Z,44.50
2019-05-23T20:45:03.760Z,43.90
2019-05-23T20:47:32.445Z,43.60
2019-05-23T20:50:01.253Z,43.30
2019-05-23T20:52:30.039Z,44.10
2019-05-23T20:54:58.669Z,43.90
2019-05-23T20:57:27.233Z,44.00
2019-05-23T20:59:55.787Z,44.40
2019-05-23T21:02:24.796Z,43.90
2019-05-23T21:04:53.421Z,43.50
2019-05-23T21:07:22.023Z,42.60
2019-05-23T21:09:50.720Z,42.40
2019-05-23T21:12:29.419Z,43.60
2019-05-23T21:14:49.964Z,45.20
2019-05-23T21:17:18.533Z,45.30
2019-05-23T21:19:47.117Z,45.60
2019-05-23T21:22:16.364Z,45.00
2019-05-23T21:24:45.020Z,44.80
2019-05-23T21:27:13.688Z,45.20
2019-05-23T21:29:42.241Z,46.10
2019-05-23T21:32:11.617Z,46.70
2019-05-23T21:34:40.175Z,46.60
2019-05-23T21:37:08.859Z,45.70
2019-05-23T21:39:37.671Z,45.70
2019-05-23T21:42:06.298Z,45.60
2019-05-23T21:44:34.934Z,46.00
2019-05-23T21:47:03.680Z,47.30
2019-05-23T21:49:32.374Z,46.90
2019-05-23T21:52:00.992Z,46.20
2019-05-23T21:54:29.649Z,46.40
2019-05-23T21:57:00.022Z,46.30
2019-05-23T21:59:28.617Z,45.00
2019-05-23T22:02:00.343Z,45.60
2019-05-23T22:04:30.642Z,44.80
2019-05-23T22:07:00.755Z,44.10
2019-05-23T22:09:29.718Z,44.20
2019-05-23T22:11:58.811Z,45.50
2019-05-23T22:14:27.514Z,47.10
2019-05-23T22:16:56.065Z,47.40
2019-05-23T22:19:25.752Z,47.60
2019-05-23T22:21:54.376Z,47.20
2019-05-23T22:24:23.259Z,48.00
2019-05-23T22:26:51.911Z,49.20
2019-05-23T22:29:21.198Z,49.30
2019-05-23T22:31:49.834Z,49.50
2019-05-23T22:34:28.878Z,50.10
2019-05-23T22:36:58.200Z,50.50
2019-05-23T22:39:26.782Z,51.20
2019-05-23T22:41:55.347Z,51.20
2019-05-23T22:44:23.975Z,51.10
2019-05-23T22:46:52.597Z,51.10
2019-05-23T22:49:21.255Z,51.10
2019-05-23T22:51:49.727Z,51.30
2019-05-23T22:54:18.281Z,51.10
2019-05-23T22:56:46.791Z,50.90
2019-05-23T22:59:15.518Z,50.60
2019-05-23T23:01:44.135Z,50.30
2019-05-23T23:04:12.780Z,50.30
2019-05-23T23:06:41.607Z,50.10
2019-05-23T23:09:10.328Z,51.00
2019-05-23T23:11:38.988Z,50.50
2019-05-23T23:14:07.665Z,49.80
2019-05-23T23:16:38.066Z,49.70
2019-05-23T23:19:06.812Z,49.80
2019-05-23T23:21:35.529Z,50.40
2019-05-23T23:24:04.234Z,51.30
2019-05-23T23:26:32.881Z,50.80
2019-05-23T23:29:01.700Z,51.20
2019-05-23T23:31:30.474Z,50.20
2019-05-23T23:33:59.105Z,49.80
2019-05-23T23:36:27.653Z,49.80
2019-05-23T23:38:56.149Z,50.60
2019-05-23T23:41:24.838Z,50.80
2019-05-23T23:43:59.341Z,51.20
2019-05-23T23:46:41.617Z,50.50
2019-05-23T23:49:28.540Z,50.20
2019-05-23T23:52:15.171Z,50.70
2019-05-23T23:55:01.753Z,50.00
2019-05-23T23:57:48.578Z,50.70
